Time;durP1;ratioP1;P1;durP2;ratioP2;P2;SDS_P1;SDS_P2;PMS_P1;PMS_P2;Temp;Humidity;BMP_temperature;BMP_pressure;BME280_temperature;BME280_humidity;BME280_pressure;Samples;Min_cycle;Max_cycle;Signal;HPM_P1;HPM_P2
2022/12/16 00:01:49;;;;;;;17.85;13.03;;;;;;;0.04;100.00;100546.56;1704550;83;21015;-59
2022/12/16 00:04:16;;;;;;;19.85;11.75;;;;;;;0.04;100.00;100551.69;1712064;83;21421;-59
2022/12/16 00:06:43;;;;;;;18.60;11.65;;;;;;;0.05;100.00;100564.84;1713161;83;21931;-58
2022/12/16 00:09:10;;;;;;;17.00;11.73;;;;;;;0.08;100.00;100569.77;1712889;83;21114;-58
2022/12/16 00:11:38;;;;;;;19.85;12.37;;;;;;;0.11;100.00;100579.77;1712587;83;21021;-58
2022/12/16 00:14:06;;;;;;;20.25;12.20;;;;;;;0.12;100.00;100580.63;1712202;83;20968;-60
2022/12/16 00:16:33;;;;;;;17.52;11.28;;;;;;;0.17;100.00;100588.33;1712329;83;21891;-59
2022/12/16 00:19:00;;;;;;;18.67;12.33;;;;;;;0.16;100.00;100587.98;1712694;83;21070;-58
2022/12/16 00:21:28;;;;;;;18.32;11.28;;;;;;;0.17;100.00;100589.61;1712411;83;21142;-58
2022/12/16 00:23:56;;;;;;;18.95;12.18;;;;;;;0.20;100.00;100582.98;1711968;83;20999;-65
2022/12/16 00:26:23;;;;;;;20.65;12.75;;;;;;;0.17;100.00;100585.77;1712578;83;21050;-64
2022/12/16 00:28:51;;;;;;;17.57;11.65;;;;;;;0.15;100.00;100596.61;1712084;83;21010;-59
2022/12/16 00:31:18;;;;;;;17.73;12.53;;;;;;;0.14;100.00;100612.08;1712736;83;21495;-59
2022/12/16 00:33:45;;;;;;;22.32;12.20;;;;;;;0.14;100.00;100622.33;1712322;83;21149;-60
2022/12/16 00:36:12;;;;;;;21.65;11.83;;;;;;;0.16;100.00;100626.44;1712057;83;21051;-58
2022/12/16 00:38:39;;;;;;;18.02;11.60;;;;;;;0.17;100.00;100634.47;1712730;83;21002;-65
2022/12/16 00:41:08;;;;;;;19.48;12.30;;;;;;;0.20;100.00;100628.32;1711498;83;21031;-59
2022/12/16 00:43:35;;;;;;;21.75;12.53;;;;;;;0.22;100.00;100624.70;1712703;83;21476;-59
2022/12/16 00:46:02;;;;;;;17.55;11.22;;;;;;;0.24;100.00;100607.95;1712055;83;21567;-59
2022/12/16 00:48:30;;;;;;;20.60;12.05;;;;;;;0.21;100.00;100603.84;1712451;82;22006;-58
2022/12/16 00:50:57;;;;;;;18.95;11.40;;;;;;;0.18;100.00;100606.62;1712535;83;20962;-61
2022/12/16 00:53:24;;;;;;;15.08;10.80;;;;;;;0.15;100.00;100613.27;1712353;83;21137;-58
2022/12/16 00:56:06;;;;;;;19.42;11.93;;;;;;;0.15;100.00;100618.39;1712492;83;21073;-61
2022/12/16 00:58:35;;;;;;;19.75;12.55;;;;;;;0.14;100.00;100617.20;1712547;83;21280;-59
2022/12/16 01:01:04;;;;;;;17.85;11.88;;;;;;;0.13;100.00;100624.08;1712070;83;21047;-60
2022/12/16 01:03:31;;;;;;;17.25;11.33;;;;;;;0.14;100.00;100624.89;1712596;83;21416;-60
2022/12/16 01:05:59;;;;;;;17.60;12.40;;;;;;;0.12;100.00;100625.48;1711917;83;21007;-59
2022/12/16 01:08:27;;;;;;;19.35;12.35;;;;;;;0.10;100.00;100623.47;1712354;83;21074;-59
2022/12/16 01:10:56;;;;;;;18.07;12.33;;;;;;;0.11;100.00;100626.38;1712785;83;21485;-59
2022/12/16 01:13:24;;;;;;;18.98;12.03;;;;;;;0.09;100.00;100625.69;1712128;83;20924;-64
2022/12/16 01:15:51;;;;;;;17.10;11.53;;;;;;;0.08;100.00;100618.46;1712177;83;22090;-65
2022/12/16 01:18:19;;;;;;;17.50;11.60;;;;;;;0.04;100.00;100605.94;1712255;83;20970;-59
2022/12/16 01:20:46;;;;;;;18.12;12.50;;;;;;;0.04;100.00;100604.66;1712728;83;20960;-59
2022/12/16 01:23:13;;;;;;;18.70;12.58;;;;;;;0.04;100.00;100604.22;1712535;83;21187;-66
2022/12/16 01:25:42;;;;;;;18.75;12.10;;;;;;;0.07;100.00;100599.33;1712229;83;20908;-66
2022/12/16 01:28:09;;;;;;;21.80;12.95;;;;;;;0.04;100.00;100597.81;1712162;83;20989;-59
2022/12/16 01:30:36;;;;;;;17.95;11.93;;;;;;;0.01;100.00;100605.72;1712840;83;21035;-59
2022/12/16 01:33:03;;;;;;;17.82;11.57;;;;;;;-0.01;100.00;100609.64;1712949;83;20848;-60
2022/12/16 01:35:31;;;;;;;18.62;12.05;;;;;;;-0.03;100.00;100612.80;1713045;83;21155;-62
2022/12/16 01:37:58;;;;;;;20.08;12.55;;;;;;;-0.04;100.00;100617.57;1712094;83;21054;-61
2022/12/16 01:40:25;;;;;;;18.65;11.48;;;;;;;-0.02;100.00;100611.05;1713653;83;22350;-59
2022/12/16 01:42:53;;;;;;;18.67;12.00;;;;;;;-0.02;100.00;100607.20;1713357;83;21051;-60
2022/12/16 01:45:34;;;;;;;17.48;11.15;;;;;;;-0.03;100.00;100611.98;1713269;83;20990;-60
2022/12/16 01:48:15;;;;;;;14.07;9.13;;;;;;;-0.05;100.00;100613.81;1712701;83;21914;-60
2022/12/16 01:50:42;;;;;;;19.80;12.10;;;;;;;-0.07;100.00;100607.99;1713050;83;21544;-59
2022/12/16 01:53:09;;;;;;;18.92;11.80;;;;;;;-0.09;100.00;100605.98;1712550;83;20963;-64
2022/12/16 01:55:43;;;;;;;17.85;11.68;;;;;;;-0.13;100.00;100617.38;1712059;83;20932;-64
2022/12/16 01:58:14;;;;;;;18.60;11.22;;;;;;;-0.15;100.00;100614.92;1712330;83;21429;-59
2022/12/16 02:00:42;;;;;;;17.57;10.47;;;;;;;-0.23;100.00;100615.07;1712829;83;21225;-59
2022/12/16 02:03:09;;;;;;;16.95;11.05;;;;;;;-0.23;100.00;100615.07;1713217;82;21863;-59
2022/12/16 02:05:40;;;;;;;19.10;12.45;;;;;;;-0.26;100.00;100623.34;1711923;83;20937;-59
2022/12/16 02:08:17;;;;;;;17.62;10.75;;;;;;;-0.27;100.00;100619.11;1713093;83;20980;-58
2022/12/16 02:10:50;;;;;;;17.20;11.53;;;;;;;-0.30;100.00;100621.91;1712926;83;21453;-59
2022/12/16 02:13:37;;;;;;;18.92;11.57;;;;;;;-0.32;100.00;100627.59;1712074;83;22222;-64
2022/12/16 02:16:15;;;;;;;18.35;12.00;;;;;;;-0.33;100.00;100637.48;1712849;83;20879;-60
2022/12/16 02:19:21;;;;;;;15.90;11.10;;;;;;;-0.30;100.00;100641.13;1709365;83;21437;-63
2022/12/16 02:22:09;;;;;;;20.35;11.83;;;;;;;-0.26;100.00;100641.27;1712839;83;21000;-58
2022/12/16 02:24:44;;;;;;;24.07;12.98;;;;;;;-0.25;100.00;100640.80;1712833;83;21963;-59
2022/12/16 02:27:36;;;;;;;18.77;11.73;;;;;;;-0.21;100.00;100652.95;1712789;83;21249;-58
2022/12/16 02:30:28;;;;;;;18.77;11.22;;;;;;;-0.20;100.00;100652.83;1711832;83;22105;-60
2022/12/16 02:33:40;;;;;;;18.12;11.70;;;;;;;-0.16;100.00;100650.87;1712946;83;25075;-64
2022/12/16 02:36:25;;;;;;;18.85;11.93;;;;;;;-0.10;100.00;100653.86;1712404;83;21026;-59
2022/12/16 02:38:59;;;;;;;18.50;11.12;;;;;;;-0.10;100.00;100652.58;1711774;83;20963;-60
2022/12/16 02:42:16;;;;;;;18.48;11.90;;;;;;;-0.10;100.00;100651.29;1712397;83;21227;-58
2022/12/16 02:45:09;;;;;;;17.07;11.15;;;;;;;-0.14;100.00;100643.92;1712554;83;21447;-58
2022/12/16 02:47:37;;;;;;;18.52;11.03;;;;;;;-0.19;100.00;100651.08;1690578;83;21275;-59
2022/12/16 02:50:24;;;;;;;19.10;11.45;;;;;;;-0.21;100.00;100656.32;1641822;83;20943;-59
2022/12/16 02:52:51;;;;;;;17.60;11.85;;;;;;;-0.20;100.00;100652.02;1712518;83;21011;-60
2022/12/16 02:55:19;;;;;;;17.65;11.25;;;;;;;-0.19;100.00;100644.24;1712483;83;22027;-58
2022/12/16 02:58:10;;;;;;;18.65;11.35;;;;;;;-0.19;100.00;100642.96;1712022;83;20939;-62
2022/12/16 03:00:53;;;;;;;;;;;;;;;-0.19;100.00;100649.80;1714917;83;21046;-62
2022/12/16 03:03:27;;;;;;;18.75;11.83;;;;;;;-0.22;100.00;100646.19;1710990;83;20856;-60
2022/12/16 03:05:54;;;;;;;16.42;10.58;;;;;;;-0.27;100.00;100648.58;1722275;83;21109;-58
2022/12/16 03:08:32;;;;;;;16.87;11.18;;;;;;;-0.29;100.00;100651.72;1721817;83;21971;-60
2022/12/16 03:11:03;;;;;;;15.45;11.05;;;;;;;-0.32;100.00;100644.23;1688082;83;21046;-58
2022/12/16 03:13:42;;;;;;;20.25;11.70;;;;;;;-0.31;100.00;100650.17;1711892;83;20980;-58
2022/12/16 03:16:10;;;;;;;18.35;11.25;;;;;;;-0.33;100.00;100651.57;1711529;83;21130;-60
2022/12/16 03:18:38;;;;;;;16.77;11.40;;;;;;;-0.33;100.00;100649.47;1702028;83;20976;-59
2022/12/16 03:21:06;;;;;;;17.50;11.80;;;;;;;-0.32;100.00;100649.36;1722341;83;21860;-58
2022/12/16 03:23:53;;;;;;;18.17;11.10;;;;;;;-0.33;100.00;100650.28;1721515;83;20975;-60
2022/12/16 03:26:28;;;;;;;16.17;10.60;;;;;;;-0.32;100.00;100653.66;1721926;83;20967;-58
2022/12/16 03:29:17;;;;;;;15.03;10.32;;;;;;;-0.33;100.00;100640.51;1721802;83;21000;-58
2022/12/16 03:31:57;;;;;;;17.10;11.38;;;;;;;-0.33;100.00;100632.36;1721813;83;21014;-58
2022/12/16 03:34:36;;;;;;;18.90;12.40;;;;;;;-0.35;100.00;100623.95;1721762;83;21123;-58
2022/12/16 03:37:06;;;;;;;16.60;11.25;;;;;;;-0.36;100.00;100633.84;1721597;83;21577;-59
2022/12/16 03:39:40;;;;;;;19.12;11.83;;;;;;;-0.33;100.00;100637.48;1722218;83;21118;-59
2022/12/16 03:42:07;;;;;;;16.73;10.75;;;;;;;-0.33;100.00;100652.03;1711808;83;21003;-61
2022/12/16 03:44:35;;;;;;;18.45;12.10;;;;;;;-0.29;100.00;100653.00;1722019;83;21077;-59
2022/12/16 03:47:02;;;;;;;18.42;12.40;;;;;;;-0.31;100.00;100645.86;1721613;83;22266;-59
2022/12/16 03:49:30;;;;;;;19.70;12.53;;;;;;;-0.29;100.00;100638.09;1721996;83;21316;-60
2022/12/16 03:51:57;;;;;;;23.05;13.58;;;;;;;-0.31;100.00;100639.92;1722096;83;20864;-59
2022/12/16 03:54:24;;;;;;;23.07;14.03;;;;;;;-0.33;100.00;100638.77;1711762;83;21050;-59
2022/12/16 03:56:51;;;;;;;19.10;12.82;;;;;;;-0.30;100.00;100644.16;1711910;83;21035;-61
2022/12/16 03:59:18;;;;;;;22.15;14.05;;;;;;;-0.31;100.00;100648.42;1712060;82;21283;-59
2022/12/16 04:01:46;;;;;;;20.45;13.68;;;;;;;-0.31;100.00;100644.58;1711913;83;21462;-59
2022/12/16 04:04:13;;;;;;;20.37;13.90;;;;;;;-0.32;100.00;100634.45;1711986;83;20991;-60
2022/12/16 04:06:41;;;;;;;18.17;11.50;;;;;;;-0.31;100.00;100639.92;1711908;83;21004;-59
2022/12/16 04:09:08;;;;;;;18.55;12.58;;;;;;;-0.25;100.00;100647.21;1711541;83;21038;-61
2022/12/16 04:25:34;;;;;;;18.25;11.95;;;;;;;-0.25;100.00;100665.14;1711464;83;21245;-61
2022/12/16 04:28:01;;;;;;;17.32;12.03;;;;;;;-0.23;100.00;100665.84;1711680;83;20904;-59
2022/12/16 04:30:33;;;;;;;17.60;11.95;;;;;;;-0.25;100.00;100674.92;1712071;83;20983;-59
